Time;durP1;ratioP1;P1;durP2;ratioP2;P2;SDS_P1;SDS_P2;PMS_P1;PMS_P2;Temp;Humidity;BMP_temperature;BMP_pressure;BME280_temperature;BME280_humidity;BME280_pressure;Samples;Min_cycle;Max_cycle;Signal;HPM_P1;HPM_P2
2022/05/21 00:00:15;;;;;;;20.25;8.32;;;10.90;99.90;;;;;;4980527;28;20092;-78
2022/05/21 00:02:41;;;;;;;16.10;7.68;;;10.90;99.90;;;;;;4997015;28;20033;-78
2022/05/21 00:05:07;;;;;;;19.73;8.45;;;10.90;99.90;;;;;;4997140;28;20461;-78
2022/05/21 00:07:33;;;;;;;16.60;8.15;;;10.90;99.90;;;;;;4996793;28;20050;-78
2022/05/21 00:09:59;;;;;;;15.45;8.50;;;10.90;99.90;;;;;;4980335;28;20580;-78
2022/05/21 00:12:25;;;;;;;16.35;7.72;;;10.90;99.90;;;;;;4996742;28;20139;-78
2022/05/21 00:14:53;;;;;;;16.55;8.48;;;10.90;99.90;;;;;;4997013;28;20443;-78
2022/05/21 00:17:20;;;;;;;15.95;8.35;;;10.90;99.90;;;;;;4980322;28;20038;-78
2022/05/21 00:19:46;;;;;;;18.45;9.13;;;10.90;99.90;;;;;;4996869;28;20124;-78
2022/05/21 00:22:11;;;;;;;17.55;8.82;;;10.90;99.90;;;;;;4996779;28;20050;-78
2022/05/21 00:24:37;;;;;;;19.35;9.55;;;11.00;99.90;;;;;;4996474;28;20049;-78
2022/05/21 00:27:03;;;;;;;19.95;9.75;;;11.00;99.90;;;;;;5014088;28;20096;-78
2022/05/21 00:29:29;;;;;;;21.95;10.15;;;11.10;99.90;;;;;;4996068;28;20049;-78
2022/05/21 00:31:55;;;;;;;24.48;9.93;;;11.10;99.90;;;;;;4980001;28;20041;-78
2022/05/21 00:34:21;;;;;;;21.50;10.18;;;11.20;99.90;;;;;;4996723;28;20500;-78
2022/05/21 00:36:47;;;;;;;23.20;11.23;;;11.20;99.90;;;;;;4996594;28;20041;-78
2022/05/21 00:39:13;;;;;;;22.98;11.00;;;11.20;99.90;;;;;;4996027;28;20077;-78
2022/05/21 00:41:39;;;;;;;23.13;11.18;;;11.30;99.90;;;;;;4979439;28;20050;-78
2022/05/21 00:44:05;;;;;;;24.27;12.55;;;11.30;99.90;;;;;;4996292;28;20061;-78
2022/05/21 00:46:38;;;;;;;22.92;10.75;;;11.30;99.90;;;;;;4980092;28;20045;-78
2022/05/21 00:49:16;;;;;;;24.50;10.55;;;11.30;99.90;;;;;;4996169;28;20050;-77
2022/05/21 00:52:21;;;;;;;17.88;10.32;;;11.20;99.90;;;;;;4995845;28;20033;-78
2022/05/21 00:54:54;;;;;;;19.45;10.63;;;11.20;99.90;;;;;;4996314;28;20369;-78
2022/05/21 00:57:30;;;;;;;25.15;11.50;;;11.20;99.90;;;;;;4980593;28;20041;-78
2022/05/21 01:00:05;;;;;;;24.23;11.52;;;11.10;99.90;;;;;;5014869;28;20065;-78
2022/05/21 01:02:38;;;;;;;21.25;11.05;;;11.10;99.90;;;;;;4997426;28;20046;-78
2022/05/21 01:05:12;;;;;;;25.23;11.98;;;11.10;99.90;;;;;;4979866;28;20494;-78
2022/05/21 01:07:40;;;;;;;20.70;11.13;;;11.10;99.90;;;;;;4996134;28;20038;-80
2022/05/21 01:10:08;;;;;;;23.73;12.88;;;11.10;99.90;;;;;;4996811;28;20034;-80
2022/05/21 01:12:38;;;;;;;30.33;13.20;;;11.10;99.90;;;;;;4996503;28;20084;-79
2022/05/21 01:15:10;;;;;;;25.70;12.82;;;11.10;99.90;;;;;;4981278;28;20111;-79
2022/05/21 01:17:36;;;;;;;24.25;12.40;;;11.20;99.90;;;;;;4996614;28;20038;-80
2022/05/21 01:20:07;;;;;;;23.20;13.27;;;11.20;99.90;;;;;;4995883;28;20385;-80
2022/05/21 01:22:51;;;;;;;28.65;15.10;;;11.20;99.90;;;;;;4995849;28;20038;-78
2022/05/21 01:25:23;;;;;;;26.55;14.50;;;11.30;99.90;;;;;;4995713;28;20034;-80
2022/05/21 01:27:51;;;;;;;31.27;14.88;;;11.30;99.90;;;;;;4995453;28;20061;-79
2022/05/21 01:30:23;;;;;;;27.75;14.90;;;11.40;99.90;;;;;;4995356;28;20045;-79
2022/05/21 01:32:50;;;;;;;33.08;13.65;;;11.40;99.90;;;;;;4995668;28;20156;-79
2022/05/21 01:35:18;;;;;;;30.27;15.25;;;11.50;99.90;;;;;;4979155;28;20096;-79
2022/05/21 01:37:47;;;;;;;26.58;13.90;;;11.50;99.90;;;;;;4995435;28;20100;-78
2022/05/21 01:40:15;;;;;;;27.92;13.43;;;11.50;99.90;;;;;;4995278;28;20125;-78
2022/05/21 01:42:41;;;;;;;33.10;15.20;;;11.60;99.90;;;;;;4979409;28;20127;-80
2022/05/21 01:45:07;;;;;;;29.95;15.88;;;11.60;99.90;;;;;;4995236;28;20077;-79
2022/05/21 01:47:34;;;;;;;33.17;15.60;;;11.60;99.90;;;;;;4995786;28;20151;-79
2022/05/21 01:50:00;;;;;;;30.73;14.80;;;11.70;99.90;;;;;;4979099;28;20550;-79
2022/05/21 01:52:27;;;;;;;29.83;15.18;;;11.70;99.90;;;;;;4995086;28;20070;-79
2022/05/21 01:54:53;;;;;;;34.58;15.23;;;11.80;99.90;;;;;;4995288;28;20105;-79
2022/05/21 01:57:19;;;;;;;32.92;15.00;;;11.80;99.90;;;;;;4978699;28;20455;-79
2022/05/21 01:59:45;;;;;;;30.65;15.45;;;11.80;99.90;;;;;;4995078;28;20125;-78
2022/05/21 02:02:10;;;;;;;32.15;16.60;;;11.80;99.90;;;;;;4995052;28;20053;-79
2022/05/21 02:04:36;;;;;;;28.52;15.70;;;11.90;99.90;;;;;;5017907;28;20045;-78
2022/05/21 02:07:02;;;;;;;33.38;16.95;;;12.00;99.90;;;;;;5019447;28;20106;-79
2022/05/21 02:09:28;;;;;;;34.63;18.08;;;12.00;99.90;;;;;;5016892;28;20029;-82
2022/05/21 02:11:54;;;;;;;28.85;17.85;;;12.00;99.90;;;;;;4979564;28;20393;-80
2022/05/21 02:14:19;;;;;;;32.15;17.75;;;12.00;99.90;;;;;;4995082;28;20057;-80
2022/05/21 02:16:45;;;;;;;33.60;18.08;;;12.00;99.90;;;;;;4978862;28;20053;-78
2022/05/21 02:19:11;;;;;;;30.17;16.13;;;12.00;99.90;;;;;;4994551;28;20045;-79
2022/05/21 02:21:40;;;;;;;39.15;17.95;;;12.10;99.90;;;;;;4994230;28;20182;-79
2022/05/21 02:24:07;;;;;;;31.10;16.35;;;12.10;99.90;;;;;;4978504;28;20072;-78
2022/05/21 02:26:35;;;;;;;34.40;17.73;;;12.10;99.90;;;;;;4994325;28;20400;-78
2022/05/21 02:29:00;;;;;;;34.15;17.52;;;12.10;99.90;;;;;;4994218;28;20042;-78
2022/05/21 02:31:26;;;;;;;35.15;17.67;;;12.10;99.90;;;;;;4994248;28;20068;-78
2022/05/21 02:33:52;;;;;;;29.85;15.02;;;12.20;99.90;;;;;;4994479;28;20038;-78
2022/05/21 02:36:17;;;;;;;29.77;15.10;;;12.20;99.90;;;;;;4994322;28;20037;-78
2022/05/21 02:41:47;;;;;;;29.88;15.55;;;12.10;99.90;;;;;;4993981;28;20046;-78
2022/05/21 02:44:12;;;;;;;26.50;14.73;;;12.20;99.90;;;;;;4994186;28;20480;-78
2022/05/21 02:46:38;;;;;;;28.02;15.55;;;12.20;99.90;;;;;;4994361;28;20061;-78
2022/05/21 02:49:03;;;;;;;30.55;15.75;;;12.20;99.90;;;;;;4994218;28;20126;-78
2022/05/21 02:51:29;;;;;;;26.67;15.43;;;12.20;99.90;;;;;;4977370;28;20425;-78
2022/05/21 02:53:54;;;;;;;34.67;16.85;;;12.30;99.90;;;;;;4993839;28;20048;-78
2022/05/21 02:56:20;;;;;;;27.55;15.65;;;12.30;99.90;;;;;;4994115;28;20153;-78
2022/05/21 02:58:45;;;;;;;27.00;15.43;;;12.30;99.90;;;;;;4994183;28;20400;-78
2022/05/21 03:01:11;;;;;;;26.33;15.18;;;12.30;99.90;;;;;;4977428;28;20054;-78
2022/05/21 03:03:36;;;;;;;29.42;15.05;;;12.30;99.90;;;;;;4993456;28;20403;-78
2022/05/21 03:06:02;;;;;;;31.17;15.05;;;12.30;99.90;;;;;;5011537;28;20496;-78
2022/05/21 03:11:12;;;;;;;27.55;14.65;;;12.30;99.90;;;;;;4993634;28;20057;-78
2022/05/21 03:13:39;;;;;;;29.02;13.98;;;12.30;99.90;;;;;;4993847;28;20034;-78
2022/05/21 03:16:05;;;;;;;26.92;13.65;;;12.30;99.90;;;;;;4993682;28;20167;-78
2022/05/21 03:18:31;;;;;;;30.25;13.65;;;12.40;99.90;;;;;;4977705;28;20056;-78
2022/05/21 03:20:56;;;;;;;21.60;12.02;;;12.40;99.90;;;;;;4993756;28;20050;-78
2022/05/21 03:23:22;;;;;;;21.05;13.30;;;12.40;99.90;;;;;;4994605;28;20049;-78
2022/05/21 03:25:48;;;;;;;22.83;13.43;;;12.40;99.90;;;;;;4994552;28;20046;-78
2022/05/21 03:28:18;;;;;;;23.65;11.63;;;12.40;99.90;;;;;;5011792;28;20053;-78
2022/05/21 03:30:44;;;;;;;27.67;12.52;;;12.40;99.90;;;;;;4995008;28;20050;-78
2022/05/21 03:33:09;;;;;;;22.50;10.52;;;12.40;99.90;;;;;;4995036;28;20045;-78
2022/05/21 03:35:35;;;;;;;26.27;10.80;;;12.40;99.90;;;;;;5012643;28;20404;-79
2022/05/21 03:38:01;;;;;;;23.35;10.52;;;12.50;99.90;;;;;;5012277;28;20041;-79
2022/05/21 03:40:30;;;;;;;26.23;9.38;;;12.50;99.90;;;;;;4994592;28;20108;-78
2022/05/21 03:42:55;;;;;;;21.02;9.45;;;12.50;99.90;;;;;;4979176;28;20065;-79
2022/05/21 03:45:21;;;;;;;19.17;8.38;;;12.50;99.90;;;;;;4995507;28;20042;-78
2022/05/21 03:47:47;;;;;;;21.48;8.23;;;12.60;99.90;;;;;;4995371;28;20081;-79
2022/05/21 03:50:16;;;;;;;18.48;8.82;;;12.60;99.90;;;;;;5012417;28;20042;-78
2022/05/21 03:52:42;;;;;;;19.73;7.05;;;12.60;99.90;;;;;;4978579;28;20224;-78
2022/05/21 03:55:08;;;;;;;22.38;7.45;;;12.60;99.90;;;;;;4994793;28;20042;-79
2022/05/21 03:57:34;;;;;;;20.33;6.82;;;12.60;99.90;;;;;;4978726;28;20038;-78
2022/05/21 03:59:59;;;;;;;14.43;6.20;;;12.60;99.90;;;;;;4978756;28;20153;-79
2022/05/21 04:02:26;;;;;;;17.85;6.25;;;12.60;99.90;;;;;;4995811;28;20116;-79
2022/05/21 04:04:52;;;;;;;14.25;5.75;;;12.70;99.90;;;;;;4980003;28;20039;-78
2022/05/21 04:07:17;;;;;;;15.38;6.80;;;12.70;99.90;;;;;;4994482;28;20038;-78
2022/05/21 04:09:43;;;;;;;17.08;6.50;;;12.70;99.90;;;;;;4994238;28;20173;-78
2022/05/21 04:12:09;;;;;;;18.13;6.75;;;12.70;99.90;;;;;;4994491;28;20077;-78
2022/05/21 04:14:35;;;;;;;22.88;6.57;;;12.70;99.90;;;;;;4995252;28;20096;-78
2022/05/21 04:17:03;;;;;;;14.27;6.03;;;12.70;99.90;;;;;;4998726;28;20041;-78
2022/05/21 04:19:29;;;;;;;14.43;6.03;;;12.70;99.90;;;;;;4998117;28;20117;-78
2022/05/21 04:21:55;;;;;;;21.63;5.80;;;12.70;99.90;;;;;;4998106;28;20739;-78
2022/05/21 04:24:21;;;;;;;14.05;5.57;;;12.70;99.90;;;;;;4981931;28;20153;-78
2022/05/21 04:26:46;;;;;;;23.83;5.85;;;12.80;99.90;;;;;;5015986;28;20044;-78
2022/05/21 04:29:16;;;;;;;16.25;5.15;;;12.70;99.90;;;;;;4996655;28;20072;-78
2022/05/21 04:31:45;;;;;;;21.45;5.95;;;12.80;99.90;;;;;;4996232;28;20042;-79
2022/05/21 04:34:11;;;;;;;12.60;4.80;;;12.80;99.90;;;;;;4996757;28;20485;-78
2022/05/21 04:36:36;;;;;;;16.63;4.40;;;12.90;99.90;;;;;;4996773;28;20038;-78
2022/05/21 04:39:03;;;;;;;21.00;4.63;;;12.90;99.90;;;;;;4980463;28;20133;-78
2022/05/21 04:41:29;;;;;;;9.48;2.72;;;12.90;99.90;;;;;;4996240;28;20120;-78
2022/05/21 04:43:55;;;;;;;12.75;3.08;;;12.90;99.90;;;;;;4996373;28;20128;-78
2022/05/21 04:46:23;;;;;;;10.82;3.40;;;12.90;99.90;;;;;;4996230;28;20049;-77
2022/05/21 04:48:48;;;;;;;11.07;2.60;;;13.00;99.90;;;;;;4997253;28;20215;-78
2022/05/21 04:51:15;;;;;;;11.90;2.85;;;13.00;99.90;;;;;;5015645;28;20480;-79
2022/05/21 04:53:41;;;;;;;9.27;2.90;;;13.00;99.90;;;;;;5000330;28;20409;-79
2022/05/21 04:56:07;;;;;;;8.50;3.05;;;13.10;99.90;;;;;;4999905;28;20038;-79
2022/05/21 04:58:33;;;;;;;15.20;2.90;;;13.10;99.90;;;;;;4999144;28;20056;-79
2022/05/21 05:01:00;;;;;;;9.35;3.03;;;13.20;99.90;;;;;;5000031;28;20508;-80
2022/05/21 05:03:26;;;;;;;11.70;2.40;;;13.20;99.90;;;;;;4983008;28;20053;-79
2022/05/21 05:05:51;;;;;;;11.80;2.20;;;13.20;99.90;;;;;;4982543;28;20053;-79
2022/05/21 05:08:19;;;;;;;8.23;2.10;;;13.30;99.90;;;;;;4983361;28;20038;-79
2022/05/21 05:10:46;;;;;;;12.70;2.47;;;13.40;99.90;;;;;;4999855;28;20046;-78
2022/05/21 05:13:13;;;;;;;8.88;3.00;;;13.50;99.90;;;;;;4983756;28;20044;-79
2022/05/21 05:15:39;;;;;;;13.02;2.80;;;13.70;99.90;;;;;;4998224;28;20037;-78
2022/05/21 05:18:08;;;;;;;12.30;2.67;;;14.00;99.90;;;;;;4998789;28;20050;-78
2022/05/21 05:20:34;;;;;;;12.18;2.60;;;14.50;99.90;;;;;;4997437;28;20046;-78
2022/05/21 05:22:59;;;;;;;8.63;2.20;;;14.70;99.90;;;;;;4997670;28;20504;-78
2022/05/21 05:25:26;;;;;;;10.30;2.10;;;14.60;99.90;;;;;;4997317;28;20060;-78
2022/05/21 05:27:51;;;;;;;9.30;2.05;;;14.80;99.90;;;;;;5014261;28;20678;-79
2022/05/21 05:30:18;;;;;;;7.07;1.90;;;15.00;99.90;;;;;;4998068;28;20053;-77
2022/05/21 05:32:44;;;;;;;11.93;2.20;;;15.40;99.90;;;;;;4997703;28;20045;-78
2022/05/21 05:35:11;;;;;;;6.18;2.38;;;15.90;99.90;;;;;;4998528;28;20042;-78
2022/05/21 05:37:38;;;;;;;12.55;2.35;;;15.90;99.90;;;;;;5013247;28;20045;-77
2022/05/21 05:40:05;;;;;;;11.20;2.28;;;16.30;99.90;;;;;;5017846;28;20112;-78
2022/05/21 05:42:31;;;;;;;15.02;2.88;;;16.70;99.90;;;;;;5005928;28;20050;-79
2022/05/21 05:44:56;;;;;;;11.98;2.22;;;16.90;99.90;;;;;;4995457;28;20096;-78
2022/05/21 05:47:22;;;;;;;14.52;2.42;;;17.00;99.90;;;;;;4995701;28;20096;-78
2022/05/21 05:49:47;;;;;;;12.30;2.20;;;17.10;99.90;;;;;;4995275;28;20137;-78
2022/05/21 05:52:13;;;;;;;7.10;2.10;;;16.80;99.90;;;;;;4995300;28;20041;-81
2022/05/21 05:54:39;;;;;;;8.48;2.20;;;16.40;99.90;;;;;;4979500;28;20050;-81
2022/05/21 05:57:09;;;;;;;10.55;2.05;;;16.00;99.90;;;;;;4979916;28;20461;-81
2022/05/21 05:59:48;;;;;;;14.48;2.00;;;15.60;99.90;;;;;;4995249;28;20053;-81
2022/05/21 06:05:04;;;;;;;12.70;2.35;;;15.40;99.90;;;;;;4995459;28;20057;-80
2022/05/21 06:07:30;;;;;;;10.02;3.15;;;15.80;99.90;;;;;;4980350;28;20066;-81
2022/05/21 06:10:06;;;;;;;15.27;2.10;;;16.20;99.90;;;;;;4979566;28;20077;-80
2022/05/21 06:12:32;;;;;;;8.98;2.42;;;16.60;99.90;;;;;;4980927;28;20045;-81
2022/05/21 06:14:58;;;;;;;10.43;2.58;;;17.00;99.90;;;;;;5000684;28;20121;-81
2022/05/21 06:17:25;;;;;;;13.93;2.30;;;17.10;99.90;;;;;;5001172;28;20321;-81
2022/05/21 06:19:52;;;;;;;11.93;2.40;;;16.90;99.90;;;;;;4983607;28;20109;-80
2022/05/21 06:22:18;;;;;;;9.32;2.15;;;16.70;99.90;;;;;;4999835;28;20054;-80
2022/05/21 06:24:43;;;;;;;11.55;2.10;;;16.40;99.90;;;;;;4999384;28;20049;-81
2022/05/21 06:27:09;;;;;;;10.35;2.20;;;16.10;99.90;;;;;;4981842;28;20038;-81
2022/05/21 06:29:38;;;;;;;12.55;2.25;;;15.90;99.90;;;;;;4979762;28;20049;-81
2022/05/21 06:32:05;;;;;;;9.20;2.50;;;15.70;99.90;;;;;;4981593;28;20040;-81
2022/05/21 06:34:31;;;;;;;8.57;1.95;;;15.80;99.90;;;;;;4983284;28;20052;-82
2022/05/21 06:37:06;;;;;;;9.13;2.10;;;15.80;99.90;;;;;;4983169;28;20097;-81
2022/05/21 06:39:33;;;;;;;11.27;1.83;;;15.70;99.90;;;;;;4999951;28;20100;-79
2022/05/21 06:41:59;;;;;;;12.63;2.30;;;15.60;99.90;;;;;;4998919;28;20038;-82
2022/05/21 06:44:24;;;;;;;10.98;1.70;;;15.40;99.90;;;;;;4981862;28;20042;-81
2022/05/21 06:46:50;;;;;;;11.45;2.20;;;15.50;99.90;;;;;;4982678;28;20053;-81
2022/05/21 06:49:17;;;;;;;12.38;2.20;;;16.10;99.90;;;;;;4980229;28;20042;-75
2022/05/21 06:51:43;;;;;;;6.50;1.83;;;16.70;99.90;;;;;;4995718;28;20073;-83
2022/05/21 06:54:09;;;;;;;4.78;1.88;;;17.20;99.90;;;;;;4980891;28;20042;-83
2022/05/21 06:56:34;;;;;;;12.27;2.00;;;17.50;99.90;;;;;;4979205;28;20041;-83
2022/05/21 06:59:00;;;;;;;10.50;2.33;;;17.30;99.90;;;;;;4998662;28;20042;-82
2022/05/21 07:01:26;;;;;;;11.35;2.03;;;17.10;99.90;;;;;;4998144;28;20042;-81
2022/05/21 07:03:51;;;;;;;12.27;2.13;;;17.00;99.90;;;;;;5000909;28;20089;-81
2022/05/21 07:09:01;;;;;;;8.18;2.25;;;17.00;99.90;;;;;;4997636;28;20575;-81
2022/05/21 07:11:26;;;;;;;9.80;2.00;;;16.60;99.90;;;;;;4997281;28;20065;-83
2022/05/21 07:13:52;;;;;;;10.55;2.05;;;16.20;99.90;;;;;;4983328;28;20373;-80
2022/05/21 07:16:18;;;;;;;8.57;2.08;;;16.00;99.90;;;;;;4980890;28;20053;-80
2022/05/21 07:18:44;;;;;;;11.43;2.60;;;16.30;99.90;;;;;;4983731;28;20481;-81
2022/05/21 07:21:15;;;;;;;9.90;2.47;;;16.70;99.90;;;;;;4995352;28;20096;-81
2022/05/21 07:23:41;;;;;;;9.50;1.43;;;17.30;99.90;;;;;;4977963;28;20038;-80
2022/05/21 07:26:07;;;;;;;9.65;2.22;;;17.60;99.90;;;;;;4994224;28;20064;-78
2022/05/21 07:28:33;;;;;;;4.78;1.63;;;17.70;99.90;;;;;;4996114;28;20049;-79
2022/05/21 07:30:59;;;;;;;8.25;1.88;;;17.60;99.90;;;;;;4996326;28;20135;-79
2022/05/21 07:33:24;;;;;;;16.20;2.45;;;17.80;99.90;;;;;;4996165;28;20512;-78
2022/05/21 07:35:50;;;;;;;13.75;2.25;;;17.80;99.90;;;;;;4995721;28;20034;-78
2022/05/21 07:38:16;;;;;;;12.68;3.13;;;17.80;99.90;;;;;;4996001;28;20711;-79
2022/05/21 07:40:44;;;;;;;7.28;2.22;;;18.10;99.90;;;;;;4979175;28;20473;-79
2022/05/21 07:43:15;;;;;;;4.43;1.77;;;18.70;99.90;;;;;;4998198;28;20048;-79
2022/05/21 07:45:41;;;;;;;7.13;1.88;;;19.10;99.90;;;;;;4978153;28;20412;-80
2022/05/21 07:48:12;;;;;;;7.65;1.67;;;19.30;99.90;;;;;;4993537;28;20049;-81
2022/05/21 07:50:40;;;;;;;7.93;1.65;;;19.20;99.90;;;;;;4996783;28;20072;-79
2022/05/21 07:53:13;;;;;;;5.80;1.55;;;18.90;99.90;;;;;;4998106;28;20113;-79
2022/05/21 07:55:41;;;;;;;5.50;1.52;;;18.40;99.90;;;;;;4997288;28;20042;-78
2022/05/21 07:58:06;;;;;;;6.45;2.00;;;17.90;99.90;;;;;;4997490;28;20053;-77
2022/05/21 08:00:32;;;;;;;8.73;1.70;;;17.80;99.90;;;;;;4997134;28;20380;-79
2022/05/21 08:02:58;;;;;;;10.45;1.80;;;18.30;99.90;;;;;;5014920;28;20049;-78
2022/05/21 08:05:23;;;;;;;8.05;1.50;;;18.20;99.90;;;;;;4997597;28;20041;-79
2022/05/21 08:07:51;;;;;;;8.23;2.08;;;17.90;99.90;;;;;;4998985;28;20048;-78
2022/05/21 08:10:17;;;;;;;7.63;1.55;;;17.60;99.90;;;;;;5000212;28;20045;-79
2022/05/21 08:12:43;;;;;;;11.32;2.00;;;17.80;99.90;;;;;;4997999;28;20042;-77
2022/05/21 08:15:09;;;;;;;10.07;1.73;;;18.20;99.90;;;;;;4998074;28;20117;-78
2022/05/21 08:17:35;;;;;;;6.75;1.70;;;18.20;99.90;;;;;;4997575;28;20061;-79
2022/05/21 08:20:01;;;;;;;5.85;1.33;;;18.10;99.90;;;;;;4997304;28;20045;-76
2022/05/21 08:27:56;;;;;;;4.00;1.88;;;17.40;99.90;;;;;;4997324;28;20042;-80
2022/05/21 08:30:22;;;;;;;9.85;1.45;;;16.90;99.90;;;;;;4997301;28;20046;-80
2022/05/21 08:32:47;;;;;;;6.85;2.10;;;17.00;99.90;;;;;;4998055;28;20049;-80
2022/05/21 08:35:13;;;;;;;7.45;1.92;;;17.50;99.90;;;;;;4997491;28;20093;-78
2022/05/21 08:37:39;;;;;;;7.00;1.27;;;17.80;99.90;;;;;;4996735;28;20041;-80
2022/05/21 08:40:05;;;;;;;7.00;2.25;;;17.60;99.90;;;;;;4980801;28;20081;-79
2022/05/21 08:42:40;;;;;;;7.93;1.70;;;17.50;99.90;;;;;;4981001;28;20800;-79
2022/05/21 08:45:22;;;;;;;8.20;1.60;;;17.70;99.90;;;;;;5018751;28;20183;-81
2022/05/21 08:48:15;;;;;;;7.80;2.17;;;17.80;99.90;;;;;;5001157;28;20038;-81
2022/05/21 08:50:48;;;;;;;6.30;1.40;;;17.80;99.90;;;;;;4998256;28;20065;-81
2022/05/21 08:53:17;;;;;;;9.23;2.25;;;17.90;99.90;;;;;;4981584;28;20038;-79
2022/05/21 08:55:47;;;;;;;5.13;1.23;;;18.50;99.90;;;;;;4996668;28;20122;-79
2022/05/21 08:58:21;;;;;;;5.82;1.30;;;18.80;99.90;;;;;;4996617;28;20049;-78
2022/05/21 09:00:48;;;;;;;5.43;1.30;;;18.90;99.90;;;;;;4980390;28;20046;-79
2022/05/21 09:03:21;;;;;;;6.97;1.52;;;19.20;99.90;;;;;;4993197;28;20058;-79
2022/05/21 09:06:08;;;;;;;6.30;1.55;;;19.50;99.90;;;;;;4992857;28;20505;-81
2022/05/21 09:08:45;;;;;;;7.07;1.50;;;19.70;99.90;;;;;;4978421;28;20045;-83
2022/05/21 09:11:20;;;;;;;7.55;1.90;;;20.10;99.90;;;;;;4966446;28;20042;-84
2022/05/21 09:14:06;;;;;;;7.07;1.55;;;19.90;99.90;;;;;;4974404;28;20485;-80
2022/05/21 09:16:56;;;;;;;5.05;1.40;;;19.60;99.90;;;;;;4982411;28;20042;-81
2022/05/21 09:19:35;;;;;;;12.77;1.92;;;19.10;99.90;;;;;;4981921;28;20045;-81
2022/05/21 09:22:04;;;;;;;5.85;1.42;;;19.00;99.90;;;;;;4982106;28;20050;-81
2022/05/21 09:24:56;;;;;;;7.28;1.58;;;19.20;99.90;;;;;;4984153;28;20049;-80
2022/05/21 09:27:44;;;;;;;9.43;2.08;;;19.50;99.90;;;;;;5006236;28;20049;-80
2022/05/21 09:30:27;;;;;;;8.73;1.85;;;19.40;99.90;;;;;;5021239;28;20105;-80
2022/05/21 09:32:58;;;;;;;11.82;1.67;;;19.60;99.90;;;;;;5020850;28;20054;-82
2022/05/21 09:35:46;;;;;;;4.05;1.30;;;20.00;99.90;;;;;;4989548;28;20488;-81
2022/05/21 09:38:20;;;;;;;5.80;1.20;;;20.00;99.90;;;;;;4979145;28;20050;-82
2022/05/21 09:40:46;;;;;;;11.45;1.63;;;19.90;99.90;;;;;;5013551;28;20575;-82
2022/05/21 09:46:22;;;;;;;6.45;1.77;;;20.20;99.90;;;;;;4995685;28;20528;-80
2022/05/21 09:48:49;;;;;;;12.77;2.63;;;20.30;99.90;;;;;;5013389;28;20038;-80
2022/05/21 09:51:24;;;;;;;10.18;1.65;;;20.60;99.90;;;;;;4995736;28;20408;-80
2022/05/21 09:53:50;;;;;;;7.32;1.58;;;20.80;99.90;;;;;;4995635;28;20045;-79
2022/05/21 09:56:34;;;;;;;5.78;1.27;;;20.90;99.90;;;;;;4996967;28;20087;-79
2022/05/21 09:59:15;;;;;;;7.55;1.58;;;20.60;99.90;;;;;;4995439;28;20095;-82
2022/05/21 10:01:53;;;;;;;5.35;1.88;;;20.40;99.90;;;;;;4994953;28;20042;-81
2022/05/21 10:04:46;;;;;;;8.00;1.45;;;20.00;99.90;;;;;;4995332;28;20096;-80
2022/05/21 10:10:58;;;;;;;5.55;1.40;;;20.10;99.90;;;;;;4979597;28;20054;-81
2022/05/21 10:12:58;;;;;;;3.65;1.23;;;19.60;99.90;;;;;;5012551;28;20042;-80
2022/05/21 10:15:29;;;;;;;9.65;2.03;;;19.50;99.90;;;;;;4995356;28;20484;-79
2022/05/21 10:18:48;;;;;;;4.93;1.58;;;19.60;99.90;;;;;;4979241;28;20046;-81
2022/05/21 10:22:02;;;;;;;4.45;1.23;;;19.80;99.90;;;;;;4996903;28;20046;-82
2022/05/21 10:24:54;;;;;;;5.57;1.60;;;20.20;99.90;;;;;;4978827;28;20042;-81
2022/05/21 10:27:50;;;;;;;9.10;1.35;;;20.50;99.90;;;;;;4949153;28;20048;-80
2022/05/21 10:31:06;;;;;;;8.30;2.00;;;20.60;99.90;;;;;;4993792;28;20389;-80
2022/05/21 10:34:04;;;;;;;2.95;1.05;;;20.50;99.90;;;;;;4900618;29;20049;-81
2022/05/21 10:37:09;;;;;;;4.38;1.15;;;20.30;99.90;;;;;;4916597;29;20039;-80
2022/05/21 10:39:58;;;;;;;6.97;1.30;;;20.20;99.90;;;;;;5007679;28;20132;-79
2022/05/21 10:43:02;;;;;;;7.03;1.40;;;20.30;99.90;;;;;;4978263;28;20045;-80
2022/05/21 10:45:45;;;;;;;7.80;1.45;;;20.50;99.90;;;;;;4978373;28;20046;-80
2022/05/21 10:48:23;;;;;;;9.48;1.30;;;20.80;99.90;;;;;;5012215;28;20450;-81
2022/05/21 10:51:34;;;;;;;6.28;1.10;;;20.90;99.90;;;;;;4993866;28;20042;-83
2022/05/21 10:54:41;;;;;;;4.80;1.10;;;21.00;98.70;;;;;;4994394;28;20049;-82
2022/05/21 10:57:58;;;;;;;4.72;0.95;;;20.80;99.50;;;;;;4994917;28;20045;-82
2022/05/21 11:00:52;;;;;;;;;;;;;;;;;;;;;
2022/05/21 11:03:58;;;;;;;4.35;1.10;;;20.20;99.90;;;;;;4994784;28;20041;-83
2022/05/21 11:06:55;;;;;;;8.10;1.42;;;20.00;99.90;;;;;;4978571;28;20065;-83
2022/05/21 11:09:38;;;;;;;6.60;1.33;;;20.10;99.90;;;;;;4994851;28;20400;-83
2022/05/21 11:12:29;;;;;;;9.38;1.75;;;20.10;99.90;;;;;;4994739;28;20046;-82
2022/05/21 11:15:05;;;;;;;10.80;1.75;;;20.20;99.90;;;;;;4972983;28;20078;-82
2022/05/21 11:18:17;;;;;;;5.60;1.08;;;20.50;99.90;;;;;;4979987;28;20046;-83
2022/05/21 11:21:11;;;;;;;4.75;1.25;;;20.50;99.90;;;;;;4979051;28;20104;-83
2022/05/21 11:23:59;;;;;;;6.25;1.30;;;20.30;99.90;;;;;;4978747;28;20081;-82
2022/05/21 11:27:36;;;;;;;3.30;1.05;;;20.40;99.90;;;;;;4940517;28;20050;-83
2022/05/21 11:30:12;;;;;;;3.35;1.15;;;20.40;99.90;;;;;;4902687;29;20035;-83
2022/05/21 11:39:01;;;;;;;5.43;1.08;;;20.50;99.90;;;;;;4895074;29;20122;-82
2022/05/21 11:41:59;;;;;;;5.78;1.70;;;20.30;99.90;;;;;;4947518;22;20043;-82
2022/05/21 11:45:14;;;;;;;6.25;1.30;;;20.20;99.90;;;;;;4959256;28;20480;-82
2022/05/21 11:48:09;;;;;;;4.60;1.30;;;20.00;99.90;;;;;;4983946;28;20073;-82
2022/05/21 11:50:35;;;;;;;4.63;0.88;;;19.90;99.90;;;;;;4975232;28;20054;-81
2022/05/21 11:53:33;;;;;;;4.55;1.58;;;19.70;99.90;;;;;;4972980;28;20510;-82
2022/05/21 11:56:23;;;;;;;8.55;1.13;;;19.40;99.90;;;;;;4939259;28;20034;-81
2022/05/21 11:59:08;;;;;;;6.07;1.52;;;19.40;99.90;;;;;;4939915;28;20078;-81
2022/05/21 12:02:26;;;;;;;3.33;0.95;;;19.40;99.90;;;;;;4939706;28;20050;-82
2022/05/21 12:05:46;;;;;;;4.63;1.23;;;19.40;99.90;;;;;;4915764;29;20110;-83
2022/05/21 12:08:51;;;;;;;7.35;1.75;;;19.20;99.90;;;;;;4893858;29;20465;-82
2022/05/21 12:11:38;;;;;;;8.82;1.60;;;19.20;99.90;;;;;;4885211;28;20050;-81
2022/05/21 12:14:21;;;;;;;4.47;1.23;;;19.30;99.90;;;;;;4972506;28;20098;-82
2022/05/21 12:16:53;;;;;;;5.32;1.60;;;19.40;99.90;;;;;;4939218;28;20049;-82
2022/05/21 12:19:43;;;;;;;7.03;1.95;;;19.40;99.90;;;;;;4939127;28;20035;-83
2022/05/21 12:22:31;;;;;;;4.70;1.30;;;19.30;99.90;;;;;;4955182;28;20135;-82
2022/05/21 12:24:56;;;;;;;6.20;1.17;;;19.20;99.90;;;;;;4955238;28;20061;-82
2022/05/21 12:27:49;;;;;;;7.63;1.08;;;19.40;99.90;;;;;;4955023;28;20050;-82
2022/05/21 12:30:24;;;;;;;8.30;1.73;;;19.30;99.90;;;;;;4939937;28;20057;-83
2022/05/21 12:32:50;;;;;;;4.57;1.10;;;19.20;99.90;;;;;;4940063;28;20050;-82
2022/05/21 12:36:00;;;;;;;6.95;1.58;;;19.00;99.90;;;;;;4955889;28;20043;-83
2022/05/21 12:38:47;;;;;;;6.32;1.45;;;18.90;99.90;;;;;;4944629;28;20062;-83
2022/05/21 12:41:32;;;;;;;8.70;1.50;;;18.80;99.90;;;;;;4959418;28;20050;-83
2022/05/21 12:44:36;;;;;;;7.38;1.42;;;19.20;99.90;;;;;;4942738;28;20138;-83
2022/05/21 12:47:16;;;;;;;8.35;1.35;;;19.50;99.90;;;;;;4959109;28;20054;-82
2022/05/21 12:49:50;;;;;;;4.20;1.30;;;19.80;99.90;;;;;;4942245;28;20108;-84
2022/05/21 12:52:48;;;;;;;7.63;1.40;;;19.90;99.90;;;;;;4974937;28;20096;-83
2022/05/21 12:55:32;;;;;;;7.90;1.42;;;19.80;99.90;;;;;;4943453;28;20169;-83
2022/05/21 12:58:17;;;;;;;5.13;1.38;;;19.90;99.90;;;;;;4942745;28;20062;-83
2022/05/21 13:01:00;;;;;;;6.32;1.40;;;19.90;99.90;;;;;;4942950;28;20453;-82
2022/05/21 13:03:31;;;;;;;6.13;1.27;;;20.00;99.90;;;;;;4959453;28;20046;-84
2022/05/21 13:06:09;;;;;;;3.35;1.10;;;20.00;99.90;;;;;;4943315;28;20038;-82
2022/05/21 13:08:44;;;;;;;8.77;1.35;;;20.20;99.90;;;;;;4958538;28;20053;-83
2022/05/21 13:11:36;;;;;;;4.13;1.10;;;20.10;99.90;;;;;;4958116;28;20525;-83
2022/05/21 13:14:31;;;;;;;4.13;1.00;;;19.90;99.90;;;;;;4942896;28;20035;-83
2022/05/21 13:17:11;;;;;;;7.55;1.58;;;19.70;99.90;;;;;;4942049;28;20038;-82
2022/05/21 13:20:10;;;;;;;3.55;1.63;;;19.60;99.90;;;;;;4957877;28;20050;-82
2022/05/21 13:23:12;;;;;;;5.35;1.17;;;19.40;99.90;;;;;;4957487;28;20082;-83
2022/05/21 13:25:55;;;;;;;5.60;1.30;;;19.40;99.90;;;;;;4941926;28;20049;-81
2022/05/21 13:28:27;;;;;;;5.07;1.58;;;19.40;99.90;;;;;;4957879;28;20113;-82
2022/05/21 13:30:53;;;;;;;6.55;2.08;;;19.30;99.90;;;;;;4941311;28;20359;-82
2022/05/21 13:33:37;;;;;;;5.22;1.35;;;19.20;99.90;;;;;;4941707;28;20097;-83
2022/05/21 13:36:17;;;;;;;4.65;1.30;;;19.20;99.90;;;;;;4940923;28;20035;-83
2022/05/21 13:38:53;;;;;;;4.50;1.20;;;19.30;99.90;;;;;;4942120;28;20125;-82
2022/05/21 13:41:36;;;;;;;4.32;1.35;;;19.50;99.90;;;;;;4941191;28;20498;-81